Terminal Aerodrome Forecast
Issued by NWS Melbourne, FL

Home | Current Version | Previous Version | Text Only | Print | Product List | Glossary On
Versions: 1 2 3 4 5 6 7 8 9 10 11 12 13 14 15 16 17 18 19 20 21 22 23 24 25 26 27 28
000
FTUS42 KMLB 090856 AAA
TAFMCO
TAF AMD
KMCO 090856Z 0909/1006 35011KT P6SM -SHRA SCT060 OVC120
     FM091600 36013G19KT P6SM FEW060 BKN100 OVC150
     FM092200 36011KT P6SM BKN150
     FM100500 36012KT P6SM BKN100=

USA.gov is the U.S. government's official web portal to all federal, state and local government web resources and services.